Time;durP1;ratioP1;P1;durP2;ratioP2;P2;SDS_P1;SDS_P2;PMS_P1;PMS_P2;Temp;Humidity;BMP_temperature;BMP_pressure;BME280_temperature;BME280_humidity;BME280_pressure;Samples;Min_cycle;Max_cycle;Signal;HPM_P1;HPM_P2
2021/08/15 00:00:51;;;;;;;;;;;14.80;99.90;;;;;;5094241;28;19909;-69
2021/08/15 00:03:16;;;;;;;;;;;14.80;99.90;;;;;;5075855;28;19908;-69
2021/08/15 00:05:42;;;;;;;;;;;14.80;99.90;;;;;;5094472;28;19912;-69
2021/08/15 00:08:08;;;;;;;;;;;14.70;99.90;;;;;;5094454;28;19909;-69
2021/08/15 00:10:34;;;;;;;;;;;14.80;99.90;;;;;;5075796;28;19955;-69
2021/08/15 00:13:00;;;;;;;;;;;14.70;99.90;;;;;;5075693;28;19916;-69
2021/08/15 00:15:25;;;;;;;;;;;14.70;99.90;;;;;;5093788;28;19908;-69
2021/08/15 00:17:50;;;;;;;;;;;14.60;99.90;;;;;;5093771;28;19934;-68
2021/08/15 00:20:16;;;;;;;;;;;14.60;99.90;;;;;;5075660;28;19912;-69
2021/08/15 00:22:42;;;;;;;;;;;14.60;99.90;;;;;;5076464;28;19912;-69
2021/08/15 00:25:08;;;;;;;;;;;14.60;99.90;;;;;;5094295;28;19908;-69
2021/08/15 00:27:34;;;;;;;;;;;14.60;99.90;;;;;;5094235;28;19909;-69
2021/08/15 00:29:59;;;;;;;;;;;14.60;99.90;;;;;;5075574;28;19916;-69
2021/08/15 00:32:25;;;;;;;;;;;14.50;99.90;;;;;;5093564;28;20288;-69
2021/08/15 00:34:50;;;;;;;;;;;14.50;99.90;;;;;;5093641;28;19908;-69
2021/08/15 00:37:16;;;;;;;;;;;14.50;99.90;;;;;;5075839;28;19908;-69
2021/08/15 00:39:41;;;;;;;;;;;14.50;99.90;;;;;;5093875;28;19940;-69
2021/08/15 00:42:07;;;;;;;;;;;14.50;99.90;;;;;;5093771;28;19915;-69
2021/08/15 00:44:32;;;;;;;;;;;14.50;99.90;;;;;;5058790;28;19908;-69
2021/08/15 00:46:58;;;;;;;;;;;14.50;99.90;;;;;;5093508;28;20323;-69
2021/08/15 00:49:24;;;;;;;;;;;14.40;99.90;;;;;;5093491;28;19908;-69
2021/08/15 00:51:49;;;;;;;;;;;14.40;99.90;;;;;;5072003;28;20281;-69
2021/08/15 00:54:15;;;;;;;;;;;14.30;99.90;;;;;;5073248;28;19909;-69
2021/08/15 00:56:40;;;;;;;;;;;14.30;99.90;;;;;;5072551;28;19912;-69
2021/08/15 00:59:06;;;;;;;;;;;14.30;99.90;;;;;;5073162;28;19909;-69
2021/08/15 01:01:33;;;;;;;;;;;14.30;99.90;;;;;;5077115;28;19987;-69
2021/08/15 01:04:04;;;;;;;;;;;14.20;99.90;;;;;;5076983;28;19995;-69
2021/08/15 01:06:31;;;;;;;;;;;14.20;99.90;;;;;;5077243;28;19909;-69
2021/08/15 01:08:56;;;;;;;;;;;14.20;99.90;;;;;;5077214;28;20296;-68
2021/08/15 01:11:22;;;;;;;;;;;14.20;99.90;;;;;;5077145;28;19912;-69
2021/08/15 01:13:47;;;;;;;;;;;14.20;99.90;;;;;;5076857;28;19908;-69
2021/08/15 01:16:13;;;;;;;;;;;14.10;99.90;;;;;;5075286;28;20274;-69
2021/08/15 01:18:38;;;;;;;;;;;14.20;99.90;;;;;;5076554;28;20011;-68
2021/08/15 01:21:06;;;;;;;;;;;14.20;99.90;;;;;;5077058;28;19909;-68
2021/08/15 01:23:33;;;;;;;;;;;14.20;99.90;;;;;;5077009;28;20350;-69
2021/08/15 01:26:00;;;;;;;;;;;14.10;99.90;;;;;;5075377;28;20260;-69
2021/08/15 01:28:26;;;;;;;;;;;14.20;99.90;;;;;;5076357;28;20003;-69
2021/08/15 01:30:51;;;;;;;;;;;14.10;99.90;;;;;;5076241;28;19996;-69
2021/08/15 01:33:25;;;;;;;;;;;14.10;99.90;;;;;;5076449;28;19913;-69
2021/08/15 01:35:52;;;;;;;;;;;14.10;99.90;;;;;;5074935;28;20003;-69
2021/08/15 01:38:17;;;;;;;;;;;14.10;99.90;;;;;;5075468;28;19912;-69
2021/08/15 01:40:42;;;;;;;;;;;14.00;99.90;;;;;;5076070;28;19919;-69
2021/08/15 01:43:08;;;;;;;;;;;14.00;99.90;;;;;;5076089;28;19909;-69
2021/08/15 01:45:33;;;;;;;;;;;14.00;99.90;;;;;;5075996;28;19909;-69
2021/08/15 01:47:59;;;;;;;;;;;14.00;99.90;;;;;;5074712;28;19912;-69
2021/08/15 01:50:24;;;;;;;;;;;14.00;99.90;;;;;;5108707;28;19930;-68
2021/08/15 01:52:50;;;;;;;;;;;14.00;99.90;;;;;;5074459;28;20034;-69
2021/08/15 01:55:15;;;;;;;;;;;14.00;99.90;;;;;;5075815;28;19908;-69
2021/08/15 01:57:40;;;;;;;;;;;14.00;99.90;;;;;;5075769;28;19935;-69
2021/08/15 02:00:06;;;;;;;;;;;14.00;99.90;;;;;;5076270;28;19912;-68
2021/08/15 02:02:32;;;;;;;;;;;14.00;99.90;;;;;;5108716;28;19909;-69
2021/08/15 02:04:57;;;;;;;;;;;13.90;99.90;;;;;;5074400;28;20357;-69
2021/08/15 02:07:24;;;;;;;;;;;13.90;99.90;;;;;;5075614;28;19912;-69
2021/08/15 02:09:49;;;;;;;;;;;13.90;99.90;;;;;;5108567;28;19914;-69
2021/08/15 02:12:15;;;;;;;;;;;13.90;99.90;;;;;;5108167;28;20014;-69
2021/08/15 02:14:40;;;;;;;;;;;13.90;99.90;;;;;;5074191;28;19908;-69
2021/08/15 02:17:05;;;;;;;;;;;13.90;99.90;;;;;;5074144;28;19908;-69
2021/08/15 02:19:33;;;;;;;;;;;13.90;99.90;;;;;;5108368;28;19909;-69
2021/08/15 02:21:58;;;;;;;;;;;13.90;99.90;;;;;;5075875;28;19909;-69
2021/08/15 02:24:24;;;;;;;;;;;13.80;99.90;;;;;;5073967;28;19909;-69
2021/08/15 02:26:49;;;;;;;;;;;13.80;99.90;;;;;;5108243;28;20038;-69
2021/08/15 02:29:15;;;;;;;;;;;13.80;99.90;;;;;;5075688;28;20358;-69
2021/08/15 02:31:40;;;;;;;;;;;13.80;99.90;;;;;;5075582;28;20345;-69
2021/08/15 02:34:06;;;;;;;;;;;13.80;99.90;;;;;;5075583;28;19908;-68
2021/08/15 02:36:31;;;;;;;;;;;13.80;99.90;;;;;;5075515;28;19909;-68
2021/08/15 02:38:56;;;;;;;;;;;13.80;99.90;;;;;;5075200;28;19909;-68
2021/08/15 02:41:22;;;;;;;;;;;13.80;99.90;;;;;;5074199;28;19912;-69
2021/08/15 02:43:47;;;;;;;;;;;13.80;99.90;;;;;;5075094;28;19913;-69
2021/08/15 02:46:13;;;;;;;;;;;13.80;99.90;;;;;;5075084;28;19913;-69
2021/08/15 02:48:39;;;;;;;;;;;13.70;99.90;;;;;;5075039;28;19909;-69
2021/08/15 02:51:04;;;;;;;;;;;13.70;99.90;;;;;;5077510;28;20397;-69
2021/08/15 02:53:30;;;;;;;;;;;13.60;99.90;;;;;;5094894;28;19912;-69
2021/08/15 02:55:55;;;;;;;;;;;13.70;99.90;;;;;;5094892;28;20029;-69
2021/08/15 02:58:20;;;;;;;;;;;13.60;99.90;;;;;;5094844;28;20316;-69
2021/08/15 03:00:46;;;;;;;;;;;13.70;99.90;;;;;;5094786;28;19931;-69
2021/08/15 03:03:11;;;;;;;;;;;13.70;99.90;;;;;;5076588;28;20002;-69
2021/08/15 03:05:37;;;;;;;;;;;13.60;99.90;;;;;;5094706;28;19915;-69
2021/08/15 03:08:02;;;;;;;;;;;13.60;99.90;;;;;;5094689;28;20361;-68
2021/08/15 03:10:28;;;;;;;;;;;13.60;99.90;;;;;;5094644;28;19914;-68
2021/08/15 03:12:53;;;;;;;;;;;13.60;99.90;;;;;;5076417;28;20307;-68
2021/08/15 03:15:19;;;;;;;;;;;13.50;99.90;;;;;;5076475;28;19915;-69
2021/08/15 03:17:44;;;;;;;;;;;13.60;99.90;;;;;;5094519;28;19908;-69
2021/08/15 03:20:10;;;;;;;;;;;13.50;99.90;;;;;;5076405;28;19908;-69
2021/08/15 03:22:36;;;;;;;;;;;13.50;99.90;;;;;;5094022;28;19908;-68
2021/08/15 03:25:01;;;;;;;;;;;13.50;99.90;;;;;;5076707;28;19912;-68
2021/08/15 03:27:27;;;;;;;;;;;13.50;99.90;;;;;;5076324;28;19947;-68
2021/08/15 03:29:52;;;;;;;;;;;13.50;99.90;;;;;;5094634;28;20413;-68
2021/08/15 03:32:18;;;;;;;;;;;13.50;99.90;;;;;;5076480;28;20288;-68
2021/08/15 03:34:43;;;;;;;;;;;13.50;99.90;;;;;;5094556;28;19986;-69
2021/08/15 03:37:08;;;;;;;;;;;13.50;99.90;;;;;;5076712;28;20279;-69
2021/08/15 03:39:34;;;;;;;;;;;13.50;99.90;;;;;;5076070;28;19908;-69
2021/08/15 03:41:59;;;;;;;;;;;13.60;99.90;;;;;;5094151;28;19944;-68
2021/08/15 03:44:27;;;;;;;;;;;13.60;99.90;;;;;;5094163;28;19912;-68
2021/08/15 03:46:53;;;;;;;;;;;13.60;99.90;;;;;;5094096;28;20357;-69
2021/08/15 03:49:18;;;;;;;;;;;13.70;99.90;;;;;;5094043;28;19917;-69
2021/08/15 03:51:44;;;;;;;;;;;13.70;99.90;;;;;;5093963;28;19920;-69
2021/08/15 03:54:09;;;;;;;;;;;13.80;99.90;;;;;;5094613;28;19961;-69
2021/08/15 03:56:35;;;;;;;;;;;13.80;99.90;;;;;;5094547;28;19908;-68
2021/08/15 03:59:00;;;;;;;;;;;13.80;99.90;;;;;;5076248;28;19951;-69
2021/08/15 04:01:26;;;;;;;;;;;13.80;99.90;;;;;;5094265;28;19915;-69
2021/08/15 04:03:51;;;;;;;;;;;13.70;99.90;;;;;;5075895;28;19908;-68
2021/08/15 04:06:24;;;;;;;;;;;13.70;99.90;;;;;;5093885;28;19908;-69
2021/08/15 04:08:50;;;;;;;;;;;13.70;99.90;;;;;;5093889;28;19908;-68
2021/08/15 04:11:16;;;;;;;;;;;13.70;99.90;;;;;;5093872;28;19915;-68
2021/08/15 04:13:41;;;;;;;;;;;13.70;99.90;;;;;;5075735;28;20277;-68
2021/08/15 04:16:07;;;;;;;;;;;13.70;99.90;;;;;;5093819;28;20300;-69
2021/08/15 04:18:32;;;;;;;;;;;13.70;99.90;;;;;;5075712;28;19908;-68
2021/08/15 04:20:57;;;;;;;;;;;13.70;99.90;;;;;;5076239;28;19909;-69
2021/08/15 04:23:23;;;;;;;;;;;13.70;99.90;;;;;;5076284;28;19912;-68
2021/08/15 04:25:48;;;;;;;;;;;13.60;99.90;;;;;;5094319;28;19908;-68
2021/08/15 04:28:14;;;;;;;;;;;13.60;99.90;;;;;;5094254;28;19914;-68
2021/08/15 04:30:39;;;;;;;;;;;13.70;99.90;;;;;;5094321;28;19947;-69
2021/08/15 04:33:05;;;;;;;;;;;13.60;99.90;;;;;;5094180;28;19912;-69
2021/08/15 04:35:30;;;;;;;;;;;13.60;99.90;;;;;;5096975;28;19961;-68
2021/08/15 04:37:57;;;;;;;;;;;13.60;99.90;;;;;;5098128;28;20422;-69
2021/08/15 04:40:22;;;;;;;;;;;13.60;99.90;;;;;;5098087;28;19908;-68
2021/08/15 04:42:48;;;;;;;;;;;13.70;99.90;;;;;;5098044;28;20292;-69
2021/08/15 04:45:13;;;;;;;;;;;13.80;99.90;;;;;;5079652;28;19919;-69
2021/08/15 04:47:38;;;;;;;;;;;13.80;99.90;;;;;;5079560;28;20410;-68
2021/08/15 04:50:04;;;;;;;;;;;13.80;99.90;;;;;;5097614;28;19915;-69
2021/08/15 04:52:30;;;;;;;;;;;13.90;99.90;;;;;;5078826;28;19985;-69
2021/08/15 04:54:55;;;;;;;;;;;14.00;99.90;;;;;;5097542;28;19999;-69
2021/08/15 04:57:20;;;;;;;;;;;14.00;99.90;;;;;;5097494;28;20349;-69
2021/08/15 04:59:46;;;;;;;;;;;14.10;99.90;;;;;;5079309;28;19914;-69
2021/08/15 05:02:11;;;;;;;;;;;14.20;99.90;;;;;;5097419;28;19915;-69
2021/08/15 05:04:37;;;;;;;;;;;14.30;99.90;;;;;;5078946;28;20375;-69
2021/08/15 05:07:02;;;;;;;;;;;14.40;99.90;;;;;;5097334;28;19908;-69
2021/08/15 05:09:29;;;;;;;;;;;14.50;99.90;;;;;;5097261;28;19934;-69
2021/08/15 05:11:54;;;;;;;;;;;14.60;99.90;;;;;;5097148;28;20315;-69
2021/08/15 05:14:20;;;;;;;;;;;14.70;99.90;;;;;;5078736;28;19934;-69
2021/08/15 05:16:45;;;;;;;;;;;14.70;99.90;;;;;;5079238;28;19908;-69
2021/08/15 05:19:11;;;;;;;;;;;14.80;99.90;;;;;;5096797;28;19908;-69
2021/08/15 05:21:36;;;;;;;;;;;14.90;99.90;;;;;;5096681;28;19908;-69
2021/08/15 05:24:02;;;;;;;;;;;15.20;99.90;;;;;;5062425;28;20007;-69
2021/08/15 05:26:27;;;;;;;;;;;15.40;99.90;;;;;;5096631;28;20280;-69
2021/08/15 05:28:53;;;;;;;;;;;15.50;99.90;;;;;;5078744;28;19977;-69
2021/08/15 05:31:18;;;;;;;;;;;15.70;99.90;;;;;;5096590;28;19916;-69
2021/08/15 05:33:44;;;;;;;;;;;15.90;99.90;;;;;;5078721;28;19962;-69
2021/08/15 05:36:09;;;;;;;;;;;16.10;99.90;;;;;;5096761;28;19999;-69
2021/08/15 05:38:35;;;;;;;;;;;16.40;99.90;;;;;;5078332;28;19908;-69
2021/08/15 05:41:00;;;;;;;;;;;16.70;99.90;;;;;;5096393;28;19914;-69
2021/08/15 05:43:25;;;;;;;;;;;16.70;99.90;;;;;;5096302;28;19934;-69
2021/08/15 05:45:51;;;;;;;;;;;16.90;99.90;;;;;;5095941;28;19908;-69
2021/08/15 05:48:18;;;;;;;;;;;17.00;99.90;;;;;;5096471;28;20373;-69
2021/08/15 05:50:43;;;;;;;;;;;17.20;99.90;;;;;;5078032;28;19916;-69
2021/08/15 05:53:09;;;;;;;;;;;17.50;99.90;;;;;;5077800;28;19928;-69
2021/08/15 05:55:34;;;;;;;;;;;17.80;99.90;;;;;;5096088;28;20366;-69
2021/08/15 05:57:59;;;;;;;;;;;18.00;99.90;;;;;;5061290;28;20312;-70
2021/08/15 06:00:25;;;;;;;;;;;18.30;99.90;;;;;;5061131;28;19915;-69
2021/08/15 06:02:50;;;;;;;;;;;18.20;99.90;;;;;;5095931;28;19915;-69
2021/08/15 06:05:17;;;;;;;;;;;18.10;99.90;;;;;;5062028;28;19908;-70
2021/08/15 06:07:42;;;;;;;;;;;18.70;99.90;;;;;;5061097;28;19908;-70
2021/08/15 06:10:08;;;;;;;;;;;19.40;99.90;;;;;;5077674;28;19941;-69
2021/08/15 06:12:34;;;;;;;;;;;20.50;99.90;;;;;;5060881;28;19916;-69
2021/08/15 06:15:00;;;;;;;;;;;21.80;99.90;;;;;;5077624;28;20323;-70
2021/08/15 06:17:26;;;;;;;;;;;22.20;99.90;;;;;;5077466;28;19908;-69
2021/08/15 06:19:53;;;;;;;;;;;22.00;99.90;;;;;;5095881;28;20393;-70
2021/08/15 06:22:18;;;;;;;;;;;21.40;99.90;;;;;;5095831;28;19996;-70
2021/08/15 06:24:44;;;;;;;;;;;20.60;99.90;;;;;;5095785;28;19939;-69
2021/08/15 06:27:10;;;;;;;;;;;20.10;99.90;;;;;;5095764;28;20268;-69
2021/08/15 06:29:35;;;;;;;;;;;19.80;99.90;;;;;;5095729;28;19957;-69
2021/08/15 06:32:01;;;;;;;;;;;19.40;99.90;;;;;;5077178;28;19912;-69
2021/08/15 06:34:26;;;;;;;;;;;19.40;99.90;;;;;;5095308;28;19915;-69
2021/08/15 06:36:52;;;;;;;;;;;19.80;99.90;;;;;;5077190;28;20014;-69
2021/08/15 06:39:17;;;;;;;;;;;20.20;99.90;;;;;;5095201;28;19915;-69
2021/08/15 06:41:43;;;;;;;;;;;20.20;99.90;;;;;;5095464;28;20365;-69
2021/08/15 06:44:08;;;;;;;;;;;20.10;99.90;;;;;;5095084;28;20415;-69
2021/08/15 06:46:34;;;;;;;;;;;19.90;99.90;;;;;;5076955;28;19912;-69
2021/08/15 06:48:59;;;;;;;;;;;19.80;99.90;;;;;;5095018;28;19912;-69
2021/08/15 06:51:25;;;;;;;;;;;19.80;99.90;;;;;;5095109;28;20287;-69
2021/08/15 06:53:50;;;;;;;;;;;19.80;99.90;;;;;;5094962;28;19915;-69
2021/08/15 06:56:16;;;;;;;;;;;19.90;99.90;;;;;;5094645;28;19912;-69
2021/08/15 06:58:41;;;;;;;;;;;20.10;99.90;;;;;;5094756;28;20398;-69
2021/08/15 07:01:07;;;;;;;;;;;20.00;99.90;;;;;;5077155;28;19943;-69
2021/08/15 07:03:32;;;;;;;;;;;20.10;99.90;;;;;;5095064;28;19915;-69
2021/08/15 07:05:58;;;;;;;;;;;20.20;99.90;;;;;;5095012;28;19915;-69
2021/08/15 07:08:23;;;;;;;;;;;20.30;99.90;;;;;;5094684;28;19919;-69
2021/08/15 07:10:49;;;;;;;;;;;20.40;99.90;;;;;;5076484;28;19943;-69
2021/08/15 07:13:19;;;;;;;;;;;20.60;99.90;;;;;;5076315;28;20262;-69
2021/08/15 07:15:45;;;;;;;;;;;20.80;99.90;;;;;;5094560;28;19914;-69
2021/08/15 07:18:11;;;;;;;;;;;20.80;99.90;;;;;;5094500;28;19908;-69
2021/08/15 07:20:36;;;;;;;;;;;20.90;99.90;;;;;;5094493;28;19912;-69
2021/08/15 07:23:02;;;;;;;;;;;20.90;99.90;;;;;;5076233;28;19912;-69
2021/08/15 07:25:29;;;;;;;;;;;20.80;99.90;;;;;;5076249;28;20003;-69
2021/08/15 07:27:55;;;;;;;;;;;20.80;99.90;;;;;;5060270;28;19912;-69
2021/08/15 07:30:20;;;;;;;;;;;21.00;99.90;;;;;;5059460;28;19931;-69
2021/08/15 07:32:50;;;;;;;;;;;21.20;99.90;;;;;;5059368;28;19912;-69
2021/08/15 07:35:15;;;;;;;;;;;21.10;99.90;;;;;;5076508;28;19947;-69
2021/08/15 07:37:41;;;;;;;;;;;21.30;99.90;;;;;;5076372;28;19915;-69
2021/08/15 07:40:06;;;;;;;;;;;21.30;99.90;;;;;;5076130;28;19938;-69
2021/08/15 07:42:32;;;;;;;;;;;21.50;99.90;;;;;;5094142;28;19916;-69
2021/08/15 07:44:57;;;;;;;;;;;21.60;99.90;;;;;;5094436;28;20373;-70
2021/08/15 07:47:23;;;;;;;;;;;22.00;99.90;;;;;;5094337;28;20320;-69
2021/08/15 07:49:48;;;;;;;;;;;22.40;99.90;;;;;;5094329;28;20273;-70
2021/08/15 07:52:14;;;;;;;;;;;22.70;99.90;;;;;;5075714;28;20300;-70
2021/08/15 07:54:39;;;;;;;;;;;23.10;99.90;;;;;;5076718;28;19908;-70
2021/08/15 07:57:04;;;;;;;;;;;23.60;99.90;;;;;;5076241;28;19908;-69
2021/08/15 07:59:30;;;;;;;;;;;24.00;99.90;;;;;;5075899;28;19991;-70
2021/08/15 08:01:55;;;;;;;;;;;24.80;99.90;;;;;;5093948;28;19909;-70
2021/08/15 08:04:21;;;;;;;;;;;25.30;99.90;;;;;;5093950;28;19916;-70
2021/08/15 08:06:48;;;;;;;;;;;25.90;99.90;;;;;;5093892;28;20323;-70
2021/08/15 08:09:13;;;;;;;;;;;26.60;99.90;;;;;;5097169;28;19908;-70
2021/08/15 08:11:39;;;;;;;;;;;27.10;99.90;;;;;;5098596;28;19908;-70
2021/08/15 08:14:04;;;;;;;;;;;27.80;99.90;;;;;;5098570;28;19912;-70
2021/08/15 08:16:29;;;;;;;;;;;27.90;99.90;;;;;;5098552;28;19909;-70
2021/08/15 08:18:55;;;;;;;;;;;27.50;99.90;;;;;;5098205;28;20273;-70
2021/08/15 08:21:20;;;;;;;;;;;27.80;99.90;;;;;;5098204;28;19956;-70
2021/08/15 08:23:46;;;;;;;;;;;27.90;99.90;;;;;;5098162;28;19909;-70
2021/08/15 08:26:11;;;;;;;;;;;27.70;99.90;;;;;;5098041;28;19951;-70
2021/08/15 08:28:37;;;;;;;;;;;26.50;99.90;;;;;;5079582;28;19908;-70
2021/08/15 08:31:02;;;;;;;;;;;25.80;99.90;;;;;;5079542;28;19908;-70
2021/08/15 08:33:28;;;;;;;;;;;26.30;99.90;;;;;;5079671;28;19912;-70
2021/08/15 08:35:53;;;;;;;;;;;26.60;99.90;;;;;;5098139;28;19912;-70
2021/08/15 08:38:19;;;;;;;;;;;26.50;99.90;;;;;;5098144;28;20246;-70
2021/08/15 08:40:46;;;;;;;;;;;26.20;99.90;;;;;;5098089;28;19908;-70
2021/08/15 08:43:12;;;;;;;;;;;26.60;99.90;;;;;;5079313;28;19909;-70
2021/08/15 08:45:41;;;;;;;;;;;26.60;99.90;;;;;;5079616;28;19999;-70
2021/08/15 08:48:06;;;;;;;;;;;26.90;99.90;;;;;;5097702;28;20349;-70
2021/08/15 08:50:32;;;;;;;;;;;27.30;99.90;;;;;;5097651;28;19908;-70
2021/08/15 08:52:57;;;;;;;;;;;28.10;99.90;;;;;;5078925;28;19920;-70
2021/08/15 08:55:23;;;;;;;;;;;27.90;99.90;;;;;;5079444;28;19912;-71
2021/08/15 08:57:48;;;;;;;;;;;27.80;99.90;;;;;;5097185;28;20273;-70
2021/08/15 09:00:15;;;;;;;;;;;28.00;99.90;;;;;;5062269;28;20282;-70
2021/08/15 09:02:40;;;;;;;;;;;28.10;99.90;;;;;;5097126;28;20350;-70
2021/08/15 09:05:06;;;;;;;;;;;28.20;99.90;;;;;;5097121;28;19914;-70
2021/08/15 09:07:34;;;;;;;;;;;28.00;99.90;;;;;;5096987;28;19908;-70
2021/08/15 09:10:01;;;;;;;;;;;28.10;99.90;;;;;;5079156;28;20292;-70
2021/08/15 09:12:48;;;;;;;;;;;27.70;99.90;;;;;;5079260;28;19919;-70
2021/08/15 09:15:15;;;;;;;;;;;27.90;99.90;;;;;;5096832;28;19958;-70
2021/08/15 09:17:41;;;;;;;;;;;27.40;99.90;;;;;;5096873;28;19908;-70
2021/08/15 09:20:08;;;;;;;;;;;26.80;99.90;;;;;;5096031;28;19915;-70
2021/08/15 09:22:35;;;;;;;;;;;26.20;99.90;;;;;;5096714;28;19912;-70
2021/08/15 09:25:10;;;;;;;;;;;26.00;99.90;;;;;;5096692;28;19908;-70
2021/08/15 09:27:38;;;;;;;;;;;25.70;99.90;;;;;;5096887;28;19908;-70
2021/08/15 09:30:05;;;;;;;;;;;25.70;99.90;;;;;;5078508;28;19912;-70
2021/08/15 09:32:30;;;;;;;;;;;25.60;99.90;;;;;;5096478;28;20017;-70
2021/08/15 09:34:58;;;;;;;;;;;25.80;99.90;;;;;;5096793;28;20377;-70
2021/08/15 09:37:26;;;;;;;;;;;25.90;99.90;;;;;;5096741;28;19912;-70
2021/08/15 09:39:51;;;;;;;;;;;26.00;99.90;;;;;;5096746;28;19956;-70
2021/08/15 09:42:17;;;;;;;;;;;25.90;99.90;;;;;;5096944;28;19977;-70
2021/08/15 09:44:42;;;;;;;;;;;25.80;99.90;;;;;;5096867;28;19916;-70
2021/08/15 09:47:09;;;;;;;;;;;25.70;99.90;;;;;;5096779;28;19923;-70
2021/08/15 09:49:39;;;;;;;;;;;26.20;99.90;;;;;;5096514;28;19947;-70
2021/08/15 09:52:07;;;;;;;;;;;25.70;99.90;;;;;;5096037;28;20448;-70
2021/08/15 09:54:32;;;;;;;;;;;26.00;99.90;;;;;;5096052;28;19915;-70
2021/08/15 09:56:58;;;;;;;;;;;27.60;99.90;;;;;;5096009;28;20281;-70
2021/08/15 09:59:24;;;;;;;;;;;26.70;99.90;;;;;;5095905;28;19912;-70
2021/08/15 10:01:51;;;;;;;;;;;26.50;99.90;;;;;;5095974;28;19962;-70
2021/08/15 10:04:17;;;;;;;;;;;26.80;99.90;;;;;;5078116;28;20430;-70
2021/08/15 10:06:44;;;;;;;;;;;27.30;99.90;;;;;;5078188;28;19908;-70
2021/08/15 10:09:09;;;;;;;;;;;27.30;99.90;;;;;;5096082;28;19943;-70
2021/08/15 10:11:36;;;;;;;;;;;26.90;99.90;;;;;;5095778;28;19957;-70
2021/08/15 10:14:03;;;;;;;;;;;26.00;99.90;;;;;;5095963;28;19915;-70
2021/08/15 10:16:31;;;;;;;;;;;26.60;99.90;;;;;;5077811;28;20347;-70
2021/08/15 10:18:58;;;;;;;;;;;27.60;99.90;;;;;;5095518;28;19931;-70
2021/08/15 10:21:23;;;;;;;;;;;28.20;99.90;;;;;;5095704;28;19916;-70
2021/08/15 10:23:49;;;;;;;;;;;28.70;99.90;;;;;;5095695;28;19908;-70
2021/08/15 10:26:34;;;;;;;;;;;30.10;99.90;;;;;;5077616;28;19977;-70
2021/08/15 10:29:00;;;;;;;;;;;29.40;99.90;;;;;;5095313;28;19912;-71
2021/08/15 10:31:45;;;;;;;;;;;30.30;99.90;;;;;;5094572;28;19960;-70
2021/08/15 10:34:10;;;;;;;;;;;30.90;99.80;;;;;;5077068;28;19912;-70
2021/08/15 10:36:36;;;;;;;;;;;31.20;98.70;;;;;;5077091;28;19933;-70
2021/08/15 10:39:02;;;;;;;;;;;30.70;97.70;;;;;;5095567;28;19908;-70
2021/08/15 10:41:47;;;;;;;;;;;30.00;98.40;;;;;;5095460;28;19908;-70
2021/08/15 10:44:14;;;;;;;;;;;29.00;98.60;;;;;;5095014;28;19908;-70
2021/08/15 10:47:00;;;;;;;;;;;29.20;98.90;;;;;;5095136;28;19908;-70
2021/08/15 10:49:45;;;;;;;;;;;28.90;98.20;;;;;;5095009;28;19977;-70
2021/08/15 10:52:25;;;;;;;;;;;28.50;98.30;;;;;;5094687;28;20292;-70
2021/08/15 10:57:33;;;;;;;;;;;27.90;98.80;;;;;;5092276;27;19916;-69
2021/08/15 10:59:58;;;;;;;;;;;28.10;99.70;;;;;;5092001;28;20357;-69
2021/08/15 11:02:30;;;;;;;;;;;27.90;99.10;;;;;;5091915;28;19909;-69
2021/08/15 11:04:57;;;;;;;;;;;27.50;99.50;;;;;;5124457;28;20273;-70
2021/08/15 11:07:38;;;;;;;;;;;27.70;99.50;;;;;;5090591;28;19952;-70
2021/08/15 11:10:05;;;;;;;;;;;27.90;99.10;;;;;;5091496;28;20262;-70
2021/08/15 11:12:31;;;;;;;;;;;28.40;98.90;;;;;;5091206;28;19920;-70
2021/08/15 11:14:57;;;;;;;;;;;27.90;99.40;;;;;;5091137;28;19938;-70
2021/08/15 11:17:24;;;;;;;;;;;27.90;99.70;;;;;;5091022;28;19927;-70
2021/08/15 11:19:50;;;;;;;;;;;28.20;99.80;;;;;;5091057;28;19908;-70
2021/08/15 11:22:25;;;;;;;;;;;28.80;98.00;;;;;;5123793;28;19915;-70
2021/08/15 11:24:53;;;;;;;;;;;28.30;98.80;;;;;;5091254;28;19912;-70
2021/08/15 11:27:22;;;;;;;;;;;28.30;97.90;;;;;;5090522;28;19908;-70
2021/08/15 11:29:48;;;;;;;;;;;27.70;99.00;;;;;;5091198;28;20441;-70
2021/08/15 11:32:15;;;;;;;;;;;27.80;99.60;;;;;;5091122;28;19952;-70
2021/08/15 11:34:56;;;;;;;;;;;27.60;99.90;;;;;;5089514;28;20007;-70
2021/08/15 11:37:23;;;;;;;;;;;27.60;99.90;;;;;;5123827;28;19916;-69
2021/08/15 11:39:49;;;;;;;;;;;27.60;99.90;;;;;;5090684;28;19974;-70
2021/08/15 11:42:16;;;;;;;;;;;27.60;99.90;;;;;;5090612;28;19912;-70
2021/08/15 11:47:31;;;;;;;;;;;28.40;99.50;;;;;;5092323;27;19912;-70
2021/08/15 11:49:58;;;;;;;;;;;28.10;99.30;;;;;;5091898;28;20265;-70
2021/08/15 11:52:25;;;;;;;;;;;27.70;99.90;;;;;;5091225;28;19916;-70
2021/08/15 11:54:53;;;;;;;;;;;27.60;99.50;;;;;;5124554;28;20378;-70
2021/08/15 11:57:19;;;;;;;;;;;27.70;99.10;;;;;;5091553;28;19915;-70
2021/08/15 11:59:45;;;;;;;;;;;27.70;98.60;;;;;;5091463;28;19992;-70
2021/08/15 12:02:19;;;;;;;;;;;27.50;99.90;;;;;;5091457;28;19917;-70
2021/08/15 12:04:45;;;;;;;;;;;28.10;99.90;;;;;;5091731;28;19908;-70
2021/08/15 12:07:11;;;;;;;;;;;27.90;98.80;;;;;;5090607;28;20015;-70
2021/08/15 12:09:37;;;;;;;;;;;27.90;98.40;;;;;;5091678;28;19950;-70
2021/08/15 12:12:05;;;;;;;;;;;27.80;98.40;;;;;;5091580;28;19915;-70
2021/08/15 12:14:32;;;;;;;;;;;27.80;99.10;;;;;;5089681;28;19919;-70
2021/08/15 12:16:58;;;;;;;;;;;28.00;97.70;;;;;;5090866;28;19908;-68
2021/08/15 12:19:24;;;;;;;;;;;28.00;98.50;;;;;;5091382;28;19908;-70
2021/08/15 12:21:50;;;;;;;;;;;27.90;98.10;;;;;;5091438;28;19913;-70
2021/08/15 12:24:18;;;;;;;;;;;27.80;98.90;;;;;;5091329;28;20384;-70
2021/08/15 12:26:45;;;;;;;;;;;28.10;98.90;;;;;;5091246;28;19913;-70
2021/08/15 12:29:17;;;;;;;;;;;27.80;98.70;;;;;;5091256;28;19992;-70
2021/08/15 12:31:43;;;;;;;;;;;28.00;98.80;;;;;;5091261;28;19908;-70
2021/08/15 12:34:16;;;;;;;;;;;27.90;98.90;;;;;;5091204;28;20316;-70
2021/08/15 12:36:43;;;;;;;;;;;27.90;98.70;;;;;;5089538;28;19912;-70
2021/08/15 12:39:08;;;;;;;;;;;27.60;98.90;;;;;;5089801;28;19916;-68
2021/08/15 12:41:54;;;;;;;;;;;27.90;99.20;;;;;;5090481;28;19909;-70
2021/08/15 12:44:21;;;;;;;;;;;27.50;99.10;;;;;;5091027;28;19909;-70
2021/08/15 12:47:04;;;;;;;;;;;27.60;99.70;;;;;;5104943;28;19955;-70
2021/08/15 12:49:45;;;;;;;;;;;27.60;99.80;;;;;;5092748;28;19990;-70
2021/08/15 12:52:13;;;;;;;;;;;27.80;97.80;;;;;;5110649;28;19954;-70
2021/08/15 12:54:58;;;;;;;;;;;27.70;96.60;;;;;;5092698;28;19970;-70
2021/08/15 12:57:24;;;;;;;;;;;27.60;97.20;;;;;;5105038;28;20006;-70
2021/08/15 12:59:49;;;;;;;;;;;28.00;97.90;;;;;;5096864;28;19951;-70
2021/08/15 13:02:14;;;;;;;;;;;28.50;97.00;;;;;;5097094;28;19912;-70
2021/08/15 13:04:40;;;;;;;;;;;28.50;97.30;;;;;;5096789;28;20033;-70
2021/08/15 13:07:05;;;;;;;;;;;28.10;97.60;;;;;;5097246;28;19919;-70
2021/08/15 13:09:31;;;;;;;;;;;28.20;98.30;;;;;;5097255;28;20000;-70
2021/08/15 13:11:56;;;;;;;;;;;28.10;98.80;;;;;;5097200;28;19952;-70
2021/08/15 13:14:22;;;;;;;;;;;27.70;99.20;;;;;;5097157;28;19957;-70
2021/08/15 13:16:47;;;;;;;;;;;27.70;99.50;;;;;;5097130;28;19908;-70
2021/08/15 13:19:12;;;;;;;;;;;27.50;99.10;;;;;;5097096;28;19915;-70
2021/08/15 13:21:38;;;;;;;;;;;27.40;98.80;;;;;;5097031;28;20004;-70
2021/08/15 13:24:03;;;;;;;;;;;27.10;99.90;;;;;;5078230;28;19914;-70
2021/08/15 13:26:29;;;;;;;;;;;27.00;99.90;;;;;;5096049;28;19979;-70
2021/08/15 13:28:54;;;;;;;;;;;27.10;99.80;;;;;;5096448;28;20365;-70
2021/08/15 13:31:20;;;;;;;;;;;27.30;99.90;;;;;;5061668;28;20353;-70
2021/08/15 13:33:45;;;;;;;;;;;27.50;99.60;;;;;;5096134;28;19908;-70
2021/08/15 13:36:11;;;;;;;;;;;27.50;99.90;;;;;;5096063;28;19912;-70
2021/08/15 13:38:36;;;;;;;;;;;27.80;97.80;;;;;;5096098;28;19908;-70
2021/08/15 13:41:02;;;;;;;;;;;28.00;97.00;;;;;;5096601;28;19912;-70
2021/08/15 13:43:27;;;;;;;;;;;27.90;96.40;;;;;;5096516;28;19908;-70
2021/08/15 13:45:53;;;;;;;;;;;27.60;96.80;;;;;;5077562;28;19959;-70
2021/08/15 13:48:18;;;;;;;;;;;27.40;97.20;;;;;;5078094;28;19908;-70
2021/08/15 13:50:44;;;;;;;;;;;27.30;97.50;;;;;;5095895;28;19908;-70
2021/08/15 13:53:09;;;;;;;;;;;27.60;97.40;;;;;;5096142;28;19908;-70
2021/08/15 13:55:35;;;;;;;;;;;27.70;96.60;;;;;;5095769;28;20358;-70
2021/08/15 13:58:04;;;;;;;;;;;27.70;97.10;;;;;;5096056;28;20422;-70
2021/08/15 14:00:30;;;;;;;;;;;27.70;97.10;;;;;;5095946;28;19943;-70
2021/08/15 14:02:55;;;;;;;;;;;27.50;97.40;;;;;;5077593;28;19943;-70
2021/08/15 14:05:21;;;;;;;;;;;27.40;97.40;;;;;;5077393;28;19912;-70
2021/08/15 14:07:46;;;;;;;;;;;27.10;97.20;;;;;;5096123;28;19958;-70
2021/08/15 14:10:12;;;;;;;;;;;27.00;97.80;;;;;;5095083;28;19908;-69
2021/08/15 14:12:37;;;;;;;;;;;27.00;98.10;;;;;;5095967;28;19908;-69
2021/08/15 14:15:03;;;;;;;;;;;27.10;98.40;;;;;;5095964;28;19961;-70
2021/08/15 14:17:29;;;;;;;;;;;27.20;98.50;;;;;;5095887;28;19915;-70